This is the latest recevied weather packets stored in our database for station/object EPGD. If no packets are shown the sender has not sent any weather packets the latest 10 day(s).
| Time | Temp. | Humidity | Pressure | Rain* | Wind** | Luminosity | Snow |
|---|---|---|---|---|---|---|---|
| 1788289506 | 15° C | 93% | 1014 hPa | - | - | - | - |
| 1788287704 | 15° C | 93% | 1014 hPa | - | - | - | - |
| 1788285904 | 15.56° C | 87% | 1014 hPa | - | - | - | - |
| 1788284104 | 16.67° C | 82% | 1014 hPa | - | - | - | - |
| 1788282304 | 16.67° C | 82% | 1013 hPa | - | - | - | - |
| 1788280504 | 16.67° C | 88% | 1013 hPa | - | - | - | - |
| 1788278704 | 17.78° C | 82% | 1013 hPa | - | - | - | - |
| 1788276904 | 17.78° C | 82% | 1013 hPa | - | - | - | - |
| 1788275126 | 17.78° C | 82% | 1013 hPa | - | - | - | - |
| 1788273304 | 16.67° C | 88% | 1013 hPa | - | - | - | - |
| 1788271504 | 18.89° C | 68% | 1013 hPa | - | - | - | - |
| 1788269704 | 18.89° C | 72% | 1013 hPa | - | - | - | - |
| 1788267904 | 18.89° C | 72% | 1013 hPa | - | - | - | - |
| 1788266104 | 17.78° C | 72% | 1012 hPa | - | - | - | - |
| 1788264304 | 18.89° C | 68% | 1012 hPa | - | - | - | - |
| 1788262504 | 17.78° C | 72% | 1012 hPa | - | - | - | - |
| 1788260704 | 17.78° C | 77% | 1012 hPa | - | - | - | - |
| 1788258904 | 17.78° C | 72% | 1012 hPa | - | - | - | - |
| 1788257104 | 16.67° C | 82% | 1012 hPa | - | - | - | - |
| 1788255304 | 15.56° C | 82% | 1012 hPa | - | - | - | - |
| 1788253525 | 16.67° C | 77% | 1012 hPa | - | - | - | - |
| 1788251724 | 15.56° C | 82% | 1012 hPa | - | - | - | - |
| 1788249904 | 15.56° C | 82% | 1011 hPa | - | - | - | - |
| 1788248104 | 16.67° C | 77% | 1011 hPa | - | - | - | - |
| 1788246304 | 15.56° C | 82% | 1011 hPa | - | - | - | - |
* Rain since midnight (hover to see other rain measurements)
** Current wind speed in m/s (hover to see current wind gust speed)